Rainier, Oregon
Current Conditions -  °F | °C
As of 12:53 AM on Monday 20 Oct 2014 (Local Time) from KSPB Reporting Station
Light Rain Light Rain  
Wind Chill: 58°   Ceiling: 7500
Heat Index: 58°   Visibility: 10mi
Dew Point: 56°   Wind: 0mph
Humidity: 93%   Direction: NA
Pressure: 29.72"   Gusts: NA
Location:  46.09°N, 122.94°W
Report Text: KSPB 200753Z AUTO 00000KT 10SM -RA OVC075 14/13 A2972 RMK AO2 RAB31 SLP064 P0000 T01440133 402220100
Loading
Personal Weather Stations






























Interactive Weather Map
Tropical Storm Tracking
New forecast layout! Learn more

10-Day Weather Forecast

Advertisements
Track Severe Weather on mobile